createdAt,value
2019-06-20T00:00:17.268Z,962.99
2019-06-20T00:01:17.229Z,962.98
2019-06-20T00:02:17.202Z,962.95
2019-06-20T00:03:17.199Z,962.95
2019-06-20T00:04:38.183Z,962.95
2019-06-20T00:05:17.149Z,962.98
2019-06-20T00:06:17.135Z,962.99
2019-06-20T00:07:17.350Z,963.00
2019-06-20T00:08:17.104Z,962.99
2019-06-20T00:09:17.079Z,962.97
2019-06-20T00:10:38.056Z,962.97
2019-06-20T00:11:17.048Z,962.96
2019-06-20T00:12:17.537Z,962.96
2019-06-20T00:13:17.010Z,963.00
2019-06-20T00:14:16.998Z,962.98
2019-06-20T00:15:16.987Z,963.01
2019-06-20T00:16:37.967Z,963.00
2019-06-20T00:17:16.939Z,963.05
2019-06-20T00:18:16.915Z,963.06
2019-06-20T00:19:16.918Z,963.10
2019-06-20T00:20:16.901Z,963.13
2019-06-20T00:21:16.858Z,963.14
2019-06-20T00:22:37.853Z,963.14
2019-06-20T00:23:16.818Z,963.15
2019-06-20T00:24:16.819Z,963.11
2019-06-20T00:25:16.813Z,963.10
2019-06-20T00:26:16.782Z,963.11
2019-06-20T00:27:16.764Z,963.12
2019-06-20T00:28:37.756Z,963.11
2019-06-20T00:29:16.721Z,963.08
2019-06-20T00:30:16.708Z,963.09
2019-06-20T00:31:16.710Z,962.99
2019-06-20T00:32:16.668Z,963.00
2019-06-20T00:33:16.637Z,962.97
2019-06-20T00:34:37.633Z,962.97
2019-06-20T00:35:16.613Z,962.93
2019-06-20T00:36:16.604Z,962.92
2019-06-20T00:37:16.592Z,962.89
2019-06-20T00:38:16.571Z,962.95
2019-06-20T00:39:16.549Z,962.91
2019-06-20T00:40:37.550Z,962.88
2019-06-20T00:41:16.500Z,962.94
2019-06-20T00:42:17.037Z,962.92
2019-06-20T00:43:18.193Z,962.88
2019-06-20T00:44:16.467Z,962.90
2019-06-20T00:45:16.451Z,962.92
2019-06-20T00:46:37.414Z,962.90
2019-06-20T00:47:16.399Z,962.88
2019-06-20T00:48:17.563Z,962.83
2019-06-20T00:49:18.982Z,962.86
2019-06-20T00:50:18.570Z,962.84
2019-06-20T00:51:16.326Z,962.86
2019-06-20T00:52:37.334Z,962.87
2019-06-20T00:53:16.285Z,962.90
2019-06-20T00:54:16.276Z,962.87
2019-06-20T00:55:16.265Z,962.89
2019-06-20T00:56:16.231Z,962.88
2019-06-20T00:57:16.219Z,962.91
2019-06-20T00:58:37.213Z,962.92
2019-06-20T00:59:16.202Z,962.94
2019-06-20T01:00:16.180Z,962.92
2019-06-20T01:01:16.166Z,962.95
2019-06-20T01:02:16.148Z,962.95
2019-06-20T01:03:16.126Z,962.95
2019-06-20T01:04:37.127Z,962.93
2019-06-20T01:05:16.094Z,962.95
2019-06-20T01:06:16.076Z,962.99
2019-06-20T01:07:16.068Z,962.99
2019-06-20T01:08:16.034Z,962.97
2019-06-20T01:09:16.019Z,963.01
2019-06-20T01:10:37.009Z,963.01
2019-06-20T01:11:16.012Z,963.04
2019-06-20T01:12:15.983Z,963.06
2019-06-20T01:13:15.936Z,963.03
2019-06-20T01:14:15.925Z,963.07
2019-06-20T01:15:15.900Z,963.05
2019-06-20T01:16:36.902Z,963.00
2019-06-20T01:17:16.525Z,963.02
2019-06-20T01:18:15.866Z,963.01
2019-06-20T01:19:15.846Z,963.05
2019-06-20T01:20:16.630Z,963.07
2019-06-20T01:21:15.806Z,963.10
2019-06-20T01:22:36.803Z,963.13
2019-06-20T01:23:15.775Z,963.18
2019-06-20T01:24:15.748Z,963.16
2019-06-20T01:25:15.754Z,963.24
2019-06-20T01:26:15.720Z,963.29
2019-06-20T01:27:15.692Z,963.35
2019-06-20T01:28:36.695Z,963.38
2019-06-20T01:29:15.664Z,963.43
2019-06-20T01:30:15.659Z,963.47
2019-06-20T01:31:15.629Z,963.51
2019-06-20T01:32:15.631Z,963.55
2019-06-20T01:33:15.608Z,963.60
2019-06-20T01:34:36.588Z,963.64
2019-06-20T01:35:15.574Z,963.73
2019-06-20T01:36:15.561Z,963.82
2019-06-20T01:37:15.623Z,963.92
2019-06-20T01:38:15.537Z,964.06
2019-06-20T01:39:15.506Z,964.23
2019-06-20T01:40:36.477Z,964.33
2019-06-20T01:41:15.458Z,964.45
2019-06-20T01:42:15.442Z,964.55
2019-06-20T01:43:15.424Z,964.63
2019-06-20T01:44:15.408Z,964.51
2019-06-20T01:45:15.391Z,964.53
2019-06-20T01:46:36.379Z,964.65
2019-06-20T01:47:15.355Z,964.70
2019-06-20T01:48:15.342Z,964.72
2019-06-20T01:49:15.328Z,964.84
2019-06-20T01:50:15.306Z,964.95
2019-06-20T01:51:15.285Z,965.08
2019-06-20T01:52:38.142Z,965.09
2019-06-20T01:53:15.249Z,965.08
2019-06-20T01:54:15.236Z,965.08
2019-06-20T01:55:15.276Z,964.98
2019-06-20T01:56:15.208Z,964.92
2019-06-20T01:57:15.178Z,964.99
2019-06-20T01:58:36.169Z,964.96
2019-06-20T01:59:15.143Z,964.91
2019-06-20T02:00:15.124Z,964.81
2019-06-20T02:01:15.103Z,964.78
2019-06-20T02:02:15.098Z,964.70
2019-06-20T02:03:15.065Z,964.64
2019-06-20T02:04:36.063Z,964.62
2019-06-20T02:05:15.027Z,964.55
2019-06-20T02:06:15.013Z,964.50
2019-06-20T02:07:14.988Z,964.52
2019-06-20T02:08:14.987Z,964.50
2019-06-20T02:09:14.952Z,964.55
2019-06-20T02:10:35.938Z,964.57
2019-06-20T02:11:14.915Z,964.56
2019-06-20T02:12:14.905Z,964.49
2019-06-20T02:13:14.889Z,964.41
2019-06-20T02:14:14.874Z,964.28
2019-06-20T02:15:14.844Z,964.12
2019-06-20T02:16:35.820Z,964.01
2019-06-20T02:17:14.810Z,963.84
2019-06-20T02:18:14.802Z,963.77
2019-06-20T02:19:14.778Z,963.78
2019-06-20T02:20:14.764Z,963.87
2019-06-20T02:21:14.721Z,964.06
2019-06-20T02:22:35.700Z,964.20
2019-06-20T02:23:14.682Z,964.28
2019-06-20T02:24:14.676Z,964.32
2019-06-20T02:25:14.668Z,964.39
2019-06-20T02:26:14.632Z,964.45
2019-06-20T02:27:15.545Z,964.49
2019-06-20T02:28:35.593Z,964.57
2019-06-20T02:29:14.576Z,964.56
2019-06-20T02:30:14.555Z,964.61
2019-06-20T02:31:14.542Z,964.56
2019-06-20T02:32:14.509Z,964.53
2019-06-20T02:33:14.493Z,964.55
2019-06-20T02:34:35.471Z,964.57
2019-06-20T02:35:14.461Z,964.64
2019-06-20T02:36:14.436Z,964.64
2019-06-20T02:37:14.414Z,964.71
2019-06-20T02:38:14.410Z,964.72
2019-06-20T02:39:14.365Z,964.76
2019-06-20T02:40:35.353Z,964.79
2019-06-20T02:41:14.333Z,964.85
2019-06-20T02:42:14.407Z,964.86
2019-06-20T02:43:14.290Z,964.84
2019-06-20T02:44:29.156Z,964.77
2019-06-20T02:45:14.257Z,964.70
2019-06-20T02:46:35.233Z,964.72
2019-06-20T02:47:14.213Z,964.65
2019-06-20T02:48:14.204Z,964.60
2019-06-20T02:49:14.176Z,964.58
2019-06-20T02:50:14.157Z,964.57
2019-06-20T02:51:14.137Z,964.51
2019-06-20T02:52:35.130Z,964.41
2019-06-20T02:53:14.103Z,964.39
2019-06-20T02:54:14.085Z,964.38
2019-06-20T02:55:14.057Z,964.40
2019-06-20T02:56:14.039Z,964.29
2019-06-20T02:57:14.031Z,964.30
2019-06-20T02:58:34.999Z,964.24
2019-06-20T02:59:13.983Z,964.23
2019-06-20T03:00:13.973Z,964.24
2019-06-20T03:01:13.935Z,964.24
2019-06-20T03:02:13.930Z,964.29
2019-06-20T03:03:13.892Z,964.22
2019-06-20T03:04:34.882Z,964.29
2019-06-20T03:05:15.206Z,964.28
2019-06-20T03:06:13.847Z,964.29
2019-06-20T03:07:14.670Z,964.39
2019-06-20T03:08:13.826Z,964.46
2019-06-20T03:09:13.772Z,964.55
2019-06-20T03:10:34.758Z,964.67
2019-06-20T03:11:16.099Z,964.73
2019-06-20T03:12:13.723Z,964.76
2019-06-20T03:13:13.745Z,964.84
2019-06-20T03:14:13.680Z,964.96
2019-06-20T03:15:13.669Z,965.00
2019-06-20T03:16:34.659Z,965.02
2019-06-20T03:17:13.621Z,965.08
2019-06-20T03:18:13.599Z,965.14
2019-06-20T03:19:13.584Z,965.14
2019-06-20T03:20:13.561Z,965.18
2019-06-20T03:21:13.553Z,965.25
2019-06-20T03:22:34.524Z,965.27
2019-06-20T03:23:13.511Z,965.26
2019-06-20T03:24:13.501Z,965.34
2019-06-20T03:25:13.470Z,965.31
2019-06-20T03:26:13.463Z,965.36
2019-06-20T03:27:13.423Z,965.36
2019-06-20T03:28:34.414Z,965.37
2019-06-20T03:29:13.388Z,965.37
2019-06-20T03:30:13.368Z,965.35
2019-06-20T03:31:13.360Z,965.37
2019-06-20T03:32:13.338Z,965.41
2019-06-20T03:33:13.304Z,965.48
2019-06-20T03:34:34.297Z,965.48
2019-06-20T03:35:13.285Z,965.50
2019-06-20T03:36:13.254Z,965.54
2019-06-20T03:37:13.235Z,965.55
2019-06-20T03:38:13.225Z,965.54
2019-06-20T03:39:13.209Z,965.53
2019-06-20T03:40:34.177Z,965.53
2019-06-20T03:41:13.153Z,965.51
2019-06-20T03:42:13.134Z,965.51
2019-06-20T03:43:13.115Z,965.55
2019-06-20T03:44:13.083Z,965.55
2019-06-20T03:45:13.065Z,965.58
2019-06-20T03:46:34.062Z,965.60
2019-06-20T03:47:13.024Z,965.64
2019-06-20T03:48:13.006Z,965.62
2019-06-20T03:49:12.996Z,965.61
2019-06-20T03:50:12.978Z,965.60
2019-06-20T03:51:12.956Z,965.53
2019-06-20T03:52:33.942Z,965.53
2019-06-20T03:53:12.918Z,965.50
2019-06-20T03:54:12.894Z,965.45
2019-06-20T03:55:12.871Z,965.45
2019-06-20T03:56:12.864Z,965.46
2019-06-20T03:57:12.826Z,965.48
2019-06-20T03:58:33.824Z,965.48
2019-06-20T03:59:12.794Z,965.45
2019-06-20T04:00:12.773Z,965.50
2019-06-20T04:01:12.754Z,965.49
2019-06-20T04:02:14.749Z,965.48
2019-06-20T04:03:12.711Z,965.46
2019-06-20T04:04:33.701Z,965.47
2019-06-20T04:05:12.677Z,965.44
2019-06-20T04:06:12.659Z,965.46
2019-06-20T04:07:12.635Z,965.45
2019-06-20T04:08:12.622Z,965.46
2019-06-20T04:09:12.600Z,965.49
2019-06-20T04:10:33.597Z,965.46
2019-06-20T04:11:12.585Z,965.51
2019-06-20T04:12:12.533Z,965.54
2019-06-20T04:13:12.511Z,965.50
2019-06-20T04:14:12.501Z,965.52
2019-06-20T04:15:19.144Z,965.54
2019-06-20T04:16:33.465Z,965.58
2019-06-20T04:17:12.440Z,965.58
2019-06-20T04:18:12.417Z,965.60
2019-06-20T04:19:12.402Z,965.59
2019-06-20T04:20:12.393Z,965.61
2019-06-20T04:21:12.376Z,965.63
2019-06-20T04:22:33.354Z,965.56
2019-06-20T04:23:12.327Z,965.62
2019-06-20T04:24:12.300Z,965.58
2019-06-20T04:25:12.292Z,965.61
2019-06-20T04:26:12.256Z,965.60
2019-06-20T04:27:12.257Z,965.59
2019-06-20T04:28:33.220Z,965.61
2019-06-20T04:29:12.203Z,965.69
2019-06-20T04:30:12.188Z,965.70
2019-06-20T04:31:12.167Z,965.69
2019-06-20T04:32:12.167Z,965.74
2019-06-20T04:33:12.144Z,965.70
2019-06-20T04:34:33.146Z,965.70
2019-06-20T04:35:12.109Z,965.73
2019-06-20T04:36:12.079Z,965.72
2019-06-20T04:37:12.049Z,965.74
2019-06-20T04:38:12.032Z,965.77
2019-06-20T04:39:19.102Z,965.73
2019-06-20T04:40:32.993Z,965.79
2019-06-20T04:41:11.982Z,965.77
2019-06-20T04:42:11.971Z,965.74
2019-06-20T04:43:11.939Z,965.80
2019-06-20T04:44:11.923Z,965.83
2019-06-20T04:45:11.904Z,965.76
2019-06-20T04:46:32.894Z,965.82
2019-06-20T04:47:11.858Z,965.80
2019-06-20T04:48:11.844Z,965.79
2019-06-20T04:49:11.814Z,965.82
2019-06-20T04:50:11.811Z,965.79
2019-06-20T04:51:11.800Z,965.79
2019-06-20T04:52:32.795Z,965.79
2019-06-20T04:53:11.748Z,965.80
2019-06-20T04:54:11.725Z,965.79
2019-06-20T04:55:11.706Z,965.80
2019-06-20T04:56:11.711Z,965.80
2019-06-20T04:57:11.669Z,965.80
2019-06-20T04:58:32.681Z,965.80
2019-06-20T04:59:11.638Z,965.81
2019-06-20T05:00:11.619Z,965.76
2019-06-20T05:01:11.601Z,965.74
2019-06-20T05:02:14.792Z,965.74
2019-06-20T05:03:11.569Z,965.77
2019-06-20T05:04:33.541Z,965.74
2019-06-20T05:05:11.533Z,965.72
2019-06-20T05:06:11.516Z,965.76
2019-06-20T05:07:11.498Z,965.77
2019-06-20T05:08:11.473Z,965.79
2019-06-20T05:09:11.452Z,965.76
2019-06-20T05:10:32.460Z,965.77
2019-06-20T05:11:11.403Z,965.80
2019-06-20T05:12:11.414Z,965.73
2019-06-20T05:13:11.379Z,965.68
2019-06-20T05:14:11.357Z,965.62
2019-06-20T05:15:11.344Z,965.58
2019-06-20T05:16:33.391Z,965.54
2019-06-20T05:17:11.309Z,965.54
2019-06-20T05:18:11.296Z,965.48
2019-06-20T05:19:11.263Z,965.54
2019-06-20T05:20:11.248Z,965.50
2019-06-20T05:21:11.231Z,965.45
2019-06-20T05:22:32.234Z,965.47
2019-06-20T05:23:11.222Z,965.43
2019-06-20T05:24:11.197Z,965.45
2019-06-20T05:25:11.156Z,965.46
2019-06-20T05:26:11.157Z,965.45
2019-06-20T05:27:11.125Z,965.46
2019-06-20T05:28:32.118Z,965.44
2019-06-20T05:29:11.092Z,965.45
2019-06-20T05:30:11.078Z,965.47
2019-06-20T05:31:11.074Z,965.47
2019-06-20T05:32:11.069Z,965.53
2019-06-20T05:33:11.017Z,965.52
2019-06-20T05:34:32.006Z,965.42
2019-06-20T05:35:10.986Z,965.46
2019-06-20T05:36:10.968Z,965.44
2019-06-20T05:37:10.955Z,965.44
2019-06-20T05:38:10.946Z,965.45
2019-06-20T05:39:10.918Z,965.45
2019-06-20T05:40:31.916Z,965.40
2019-06-20T05:41:10.900Z,965.41
2019-06-20T05:42:10.864Z,965.42
2019-06-20T05:43:10.858Z,965.40
2019-06-20T05:44:10.844Z,965.43
2019-06-20T05:45:10.821Z,965.45
2019-06-20T05:46:31.820Z,965.46
2019-06-20T05:47:13.579Z,965.48
2019-06-20T05:48:10.775Z,965.50
2019-06-20T05:49:10.754Z,965.53
2019-06-20T05:50:10.737Z,965.52
2019-06-20T05:51:10.728Z,965.59
2019-06-20T05:52:31.716Z,965.59
2019-06-20T05:53:10.740Z,965.55
2019-06-20T05:54:10.663Z,965.55
2019-06-20T05:55:10.679Z,965.59
2019-06-20T05:56:10.654Z,965.55
2019-06-20T05:57:10.627Z,965.59
2019-06-20T05:58:31.632Z,965.59
2019-06-20T05:59:10.596Z,965.61
2019-06-20T06:00:10.591Z,965.57
2019-06-20T06:01:11.714Z,965.61
2019-06-20T06:02:10.560Z,965.65
2019-06-20T06:03:13.568Z,965.59
2019-06-20T06:04:31.544Z,965.62
2019-06-20T06:05:10.511Z,965.56
2019-06-20T06:06:10.496Z,965.60
2019-06-20T06:07:13.948Z,965.57
2019-06-20T06:08:10.498Z,965.54
2019-06-20T06:09:10.458Z,965.64
2019-06-20T06:10:31.462Z,965.58
2019-06-20T06:11:10.422Z,965.59
2019-06-20T06:12:10.431Z,965.66
2019-06-20T06:13:10.405Z,965.61
2019-06-20T06:14:10.396Z,965.62
2019-06-20T06:15:10.395Z,965.63
2019-06-20T06:16:31.368Z,965.64
2019-06-20T06:17:10.477Z,965.64
2019-06-20T06:18:10.339Z,965.63
2019-06-20T06:19:10.310Z,965.64
2019-06-20T06:20:10.308Z,965.55
2019-06-20T06:21:10.339Z,965.53
2019-06-20T06:22:31.278Z,965.62
2019-06-20T06:23:10.281Z,965.56
2019-06-20T06:24:10.246Z,965.55
2019-06-20T06:25:10.248Z,965.51
2019-06-20T06:26:10.235Z,965.51
2019-06-20T06:27:10.201Z,965.53
2019-06-20T06:28:31.201Z,965.59
2019-06-20T06:29:10.183Z,965.51
2019-06-20T06:30:10.176Z,965.54
2019-06-20T06:31:10.160Z,965.54
2019-06-20T06:32:10.131Z,965.58
2019-06-20T06:33:10.127Z,965.52
2019-06-20T06:34:31.111Z,965.60
2019-06-20T06:35:10.097Z,965.52
2019-06-20T06:36:10.105Z,965.65
2019-06-20T06:37:10.080Z,965.61
2019-06-20T06:38:10.064Z,965.66
2019-06-20T06:39:10.054Z,965.59
2019-06-20T06:40:32.047Z,965.55
2019-06-20T06:41:10.031Z,965.59
2019-06-20T06:42:10.018Z,965.63
2019-06-20T06:43:10.001Z,965.63
2019-06-20T06:44:10.053Z,965.61
2019-06-20T06:45:09.980Z,965.62
2019-06-20T06:46:43.763Z,965.57
2019-06-20T06:47:09.952Z,965.62
2019-06-20T06:48:09.966Z,965.55
2019-06-20T06:49:09.938Z,965.61
2019-06-20T06:50:09.933Z,965.64
2019-06-20T06:51:09.927Z,965.61
2019-06-20T06:52:30.925Z,965.59
2019-06-20T06:53:09.905Z,965.61
2019-06-20T06:54:09.891Z,965.64
2019-06-20T06:55:09.886Z,965.61
2019-06-20T06:56:09.878Z,965.66
2019-06-20T06:57:09.871Z,965.65
2019-06-20T06:58:30.870Z,965.67
2019-06-20T06:59:09.858Z,965.68
2019-06-20T07:00:09.832Z,965.67
2019-06-20T07:01:10.355Z,965.70
2019-06-20T07:02:09.806Z,965.66
2019-06-20T07:03:10.831Z,965.69
2019-06-20T07:04:30.840Z,965.59
2019-06-20T07:05:09.784Z,965.57
2019-06-20T07:06:09.813Z,965.58
2019-06-20T07:07:10.731Z,965.70
2019-06-20T07:08:09.759Z,965.73
2019-06-20T07:09:11.712Z,965.60
2019-06-20T07:10:30.749Z,965.57
2019-06-20T07:11:09.739Z,965.54
2019-06-20T07:12:09.731Z,965.64
2019-06-20T07:13:09.709Z,965.62
2019-06-20T07:14:09.715Z,965.54
2019-06-20T07:15:09.693Z,965.46
2019-06-20T07:16:30.706Z,965.54
2019-06-20T07:17:09.670Z,965.49
2019-06-20T07:18:09.680Z,965.58
2019-06-20T07:19:09.657Z,965.54
2019-06-20T07:20:09.649Z,965.46
2019-06-20T07:21:09.666Z,965.52
2019-06-20T07:22:30.629Z,965.55
2019-06-20T07:23:09.623Z,965.60
2019-06-20T07:24:09.797Z,965.54
2019-06-20T07:25:09.599Z,965.61
2019-06-20T07:26:09.588Z,965.62
2019-06-20T07:27:09.587Z,965.61
2019-06-20T07:28:30.589Z,965.59
2019-06-20T07:29:09.557Z,965.57
2019-06-20T07:30:09.593Z,965.62
2019-06-20T07:31:09.545Z,965.60
2019-06-20T07:32:09.565Z,965.64
2019-06-20T07:33:09.518Z,965.62
2019-06-20T07:34:31.308Z,965.62
2019-06-20T07:35:09.502Z,965.67
2019-06-20T07:36:09.511Z,965.63
2019-06-20T07:37:10.232Z,965.60
2019-06-20T07:38:09.467Z,965.63
2019-06-20T07:39:09.452Z,965.63
2019-06-20T07:40:30.478Z,965.72
2019-06-20T07:41:09.448Z,965.64
2019-06-20T07:42:09.457Z,965.74
2019-06-20T07:43:09.415Z,965.59
2019-06-20T07:44:09.410Z,965.58
2019-06-20T07:45:09.407Z,965.56
2019-06-20T07:46:30.419Z,965.60
2019-06-20T07:47:17.694Z,965.58
2019-06-20T07:48:09.382Z,965.59
2019-06-20T07:49:09.360Z,965.67
2019-06-20T07:50:09.349Z,965.64
2019-06-20T07:51:09.344Z,965.60
2019-06-20T07:52:30.351Z,965.61
2019-06-20T07:53:09.317Z,965.61
2019-06-20T07:54:09.312Z,965.60
2019-06-20T07:55:09.296Z,965.65
2019-06-20T07:56:09.560Z,965.62
2019-06-20T07:57:09.290Z,965.55
2019-06-20T07:58:30.304Z,965.60
2019-06-20T07:59:09.271Z,965.65
2019-06-20T08:00:09.255Z,965.75
2019-06-20T08:01:09.234Z,965.79
2019-06-20T08:02:09.211Z,965.66
2019-06-20T08:03:09.211Z,965.76
2019-06-20T08:04:30.212Z,965.63
2019-06-20T08:05:09.196Z,965.78
2019-06-20T08:06:09.182Z,965.74
2019-06-20T08:07:09.182Z,965.68
2019-06-20T08:08:09.159Z,965.74
2019-06-20T08:09:09.152Z,965.68
2019-06-20T08:10:30.152Z,965.55
2019-06-20T08:11:09.129Z,965.49
2019-06-20T08:12:09.129Z,965.56
2019-06-20T08:13:09.110Z,965.54
2019-06-20T08:14:09.113Z,965.62
2019-06-20T08:15:14.844Z,965.63
2019-06-20T08:16:30.110Z,965.76
2019-06-20T08:17:09.072Z,965.77
2019-06-20T08:18:09.079Z,965.70
2019-06-20T08:19:09.070Z,965.67
2019-06-20T08:20:09.043Z,965.58
2019-06-20T08:21:09.045Z,965.59
2019-06-20T08:22:30.060Z,965.68
2019-06-20T08:23:09.031Z,965.59
2019-06-20T08:24:09.027Z,965.64
2019-06-20T08:25:09.028Z,965.62
2019-06-20T08:26:09.001Z,965.62
2019-06-20T08:27:08.997Z,965.66
2019-06-20T08:28:30.006Z,965.66
2019-06-20T08:29:20.082Z,965.74
2019-06-20T08:30:09.005Z,965.65
2019-06-20T08:31:08.953Z,965.67
2019-06-20T08:32:08.952Z,965.71
2019-06-20T08:33:11.924Z,965.72
2019-06-20T08:34:29.926Z,965.66
2019-06-20T08:35:08.913Z,965.74
2019-06-20T08:36:08.927Z,965.66
2019-06-20T08:37:08.899Z,965.68
2019-06-20T08:38:08.899Z,965.59
2019-06-20T08:39:08.916Z,965.74
2019-06-20T08:40:29.892Z,965.65
2019-06-20T08:41:08.879Z,965.75
2019-06-20T08:42:08.887Z,965.71
2019-06-20T08:43:08.840Z,965.71
2019-06-20T08:44:08.844Z,965.79
2019-06-20T08:45:08.819Z,965.80
2019-06-20T08:46:30.818Z,965.77
2019-06-20T08:47:08.805Z,965.78
2019-06-20T08:48:08.817Z,965.79
2019-06-20T08:49:08.860Z,965.76
2019-06-20T08:50:08.799Z,965.71
2019-06-20T08:51:08.778Z,965.79
2019-06-20T08:52:29.784Z,965.81
2019-06-20T08:53:09.426Z,965.74
2019-06-20T08:54:08.769Z,965.68
2019-06-20T08:55:08.750Z,965.78
2019-06-20T08:56:08.745Z,965.77
2019-06-20T08:57:08.739Z,965.77
2019-06-20T08:58:29.735Z,965.77
2019-06-20T08:59:23.478Z,965.70
2019-06-20T09:00:08.694Z,965.71
